Time;durP1;ratioP1;P1;durP2;ratioP2;P2;SDS_P1;SDS_P2;PMS_P1;PMS_P2;Temp;Humidity;BMP_temperature;BMP_pressure;BME280_temperature;BME280_humidity;BME280_pressure;Samples;Min_cycle;Max_cycle;Signal;HPM_P1;HPM_P2
2021/08/31 00:00:55;;;;;;;11.68;6.88;;;16.20;99.90;;;;;;5051594;28;20441;-77
2021/08/31 00:03:20;;;;;;;12.95;6.90;;;16.20;99.90;;;;;;5053061;28;20056;-77
2021/08/31 00:05:46;;;;;;;16.45;6.88;;;16.10;99.90;;;;;;5051319;28;20037;-77
2021/08/31 00:08:12;;;;;;;20.40;7.60;;;16.10;99.90;;;;;;5051473;28;20025;-77
2021/08/31 00:10:37;;;;;;;11.75;6.15;;;16.10;99.90;;;;;;5049570;28;20029;-76
2021/08/31 00:13:03;;;;;;;13.95;6.63;;;16.10;99.90;;;;;;5052174;28;20033;-76
2021/08/31 00:15:29;;;;;;;9.68;5.40;;;16.20;99.90;;;;;;5050845;28;20048;-76
2021/08/31 00:17:56;;;;;;;8.07;4.97;;;16.20;99.90;;;;;;5050507;28;20080;-76
2021/08/31 00:20:22;;;;;;;11.05;5.55;;;16.30;99.90;;;;;;5049228;28;20390;-76
2021/08/31 00:22:47;;;;;;;11.77;5.90;;;16.20;99.90;;;;;;5051679;28;20119;-77
2021/08/31 00:25:13;;;;;;;12.32;6.25;;;16.20;99.90;;;;;;5048596;28;20492;-75
2021/08/31 00:27:38;;;;;;;15.20;7.20;;;16.30;99.90;;;;;;5049967;28;20102;-73
2021/08/31 00:30:05;;;;;;;19.38;7.03;;;16.20;99.90;;;;;;5049762;28;20022;-75
2021/08/31 00:32:31;;;;;;;11.20;6.70;;;16.10;99.90;;;;;;5046312;28;20025;-75
2021/08/31 00:34:56;;;;;;;14.88;6.55;;;16.10;99.90;;;;;;5050598;28;20087;-74
2021/08/31 00:37:22;;;;;;;18.35;6.55;;;16.10;99.90;;;;;;5051640;28;20036;-75
2021/08/31 00:39:48;;;;;;;13.38;6.70;;;16.00;99.90;;;;;;5051860;28;20113;-75
2021/08/31 00:42:14;;;;;;;9.80;6.35;;;16.10;99.90;;;;;;5051150;28;20132;-74
2021/08/31 00:44:39;;;;;;;13.75;6.95;;;16.10;99.90;;;;;;5052005;28;20032;-75
2021/08/31 00:47:05;;;;;;;14.45;6.70;;;16.00;99.90;;;;;;5051534;28;20028;-74
2021/08/31 00:49:32;;;;;;;14.32;6.22;;;16.00;99.90;;;;;;5051810;28;20017;-75
2021/08/31 00:51:58;;;;;;;12.73;6.65;;;16.00;99.90;;;;;;5052259;28;20103;-75
2021/08/31 00:54:24;;;;;;;12.98;6.63;;;16.10;99.90;;;;;;5051761;28;20049;-74
2021/08/31 00:56:54;;;;;;;12.80;6.18;;;16.00;99.90;;;;;;5050699;28;20036;-74
2021/08/31 00:59:23;;;;;;;14.88;7.32;;;16.00;99.90;;;;;;5050024;28;20029;-75
2021/08/31 01:01:55;;;;;;;18.00;6.93;;;16.00;99.90;;;;;;5046638;28;20029;-75
2021/08/31 01:04:28;;;;;;;11.25;6.13;;;16.00;99.90;;;;;;5050967;28;20561;-75
2021/08/31 01:06:55;;;;;;;13.02;6.32;;;16.00;99.90;;;;;;5050871;28;20024;-75
2021/08/31 01:09:22;;;;;;;14.35;7.75;;;16.00;99.90;;;;;;5051464;28;20024;-74
2021/08/31 01:11:49;;;;;;;17.58;7.22;;;16.00;99.90;;;;;;5052248;28;20029;-74
2021/08/31 01:14:16;;;;;;;16.17;7.28;;;16.00;99.90;;;;;;5051195;28;20028;-75
2021/08/31 01:16:41;;;;;;;14.07;7.55;;;16.00;99.90;;;;;;5051973;28;20246;-75
2021/08/31 01:19:07;;;;;;;16.80;6.78;;;15.90;99.90;;;;;;5053002;28;20103;-74
2021/08/31 01:21:33;;;;;;;14.15;6.65;;;15.90;99.90;;;;;;5052484;28;20449;-74
2021/08/31 01:23:59;;;;;;;16.80;6.95;;;15.90;99.90;;;;;;5054147;28;20033;-74
2021/08/31 01:26:27;;;;;;;12.75;7.03;;;15.90;99.90;;;;;;5066221;28;20029;-75
2021/08/31 01:28:52;;;;;;;15.05;6.55;;;15.90;99.90;;;;;;5071133;28;20045;-74
2021/08/31 01:31:18;;;;;;;13.23;6.97;;;15.90;99.90;;;;;;5065273;28;20029;-75
2021/08/31 01:33:44;;;;;;;12.82;6.32;;;15.90;99.90;;;;;;5073647;28;20040;-75
2021/08/31 01:36:15;;;;;;;14.75;6.50;;;15.90;99.90;;;;;;5072340;28;20029;-75
2021/08/31 01:38:41;;;;;;;14.68;6.03;;;15.80;99.90;;;;;;5069374;28;20045;-74
2021/08/31 01:41:07;;;;;;;15.80;7.22;;;15.80;99.90;;;;;;5051512;28;20026;-75
2021/08/31 01:43:32;;;;;;;17.52;6.80;;;15.80;99.90;;;;;;5071072;28;20044;-75
2021/08/31 01:45:58;;;;;;;14.38;6.88;;;15.80;99.90;;;;;;5066557;28;20051;-74
2021/08/31 01:48:23;;;;;;;16.05;6.70;;;15.80;99.90;;;;;;5065609;28;20036;-74
2021/08/31 01:50:49;;;;;;;14.05;6.57;;;15.70;99.90;;;;;;5067948;28;20061;-74
2021/08/31 01:53:15;;;;;;;15.50;6.70;;;15.80;99.90;;;;;;5067944;28;20062;-73
2021/08/31 01:55:40;;;;;;;13.70;6.82;;;15.80;99.90;;;;;;5070146;28;20025;-74
2021/08/31 01:58:06;;;;;;;12.70;7.07;;;15.80;99.90;;;;;;5063034;28;20056;-74
2021/08/31 02:00:32;;;;;;;18.63;6.82;;;15.80;99.90;;;;;;5068770;28;20037;-74
2021/08/31 02:02:58;;;;;;;13.05;6.68;;;15.80;99.90;;;;;;5067348;28;20041;-74
2021/08/31 02:05:25;;;;;;;16.80;5.90;;;15.80;99.90;;;;;;5066866;28;20029;-74
2021/08/31 02:07:50;;;;;;;14.18;6.45;;;15.70;99.90;;;;;;5054797;28;20037;-75
2021/08/31 02:10:16;;;;;;;19.08;5.72;;;15.80;99.90;;;;;;5053390;28;20029;-75
2021/08/31 02:12:41;;;;;;;10.63;5.75;;;15.80;99.90;;;;;;5053807;28;20057;-74
2021/08/31 02:15:08;;;;;;;13.35;6.30;;;15.80;99.90;;;;;;5044992;28;20028;-75
2021/08/31 02:17:33;;;;;;;7.97;5.10;;;15.80;99.90;;;;;;5051968;28;20057;-74
2021/08/31 02:19:59;;;;;;;8.35;4.97;;;15.80;99.90;;;;;;5041656;28;20086;-74
2021/08/31 02:22:25;;;;;;;9.80;5.28;;;15.80;99.90;;;;;;5052241;28;20102;-75
2021/08/31 02:24:51;;;;;;;12.73;6.32;;;15.80;99.90;;;;;;5051879;28;20481;-74
2021/08/31 02:27:16;;;;;;;9.85;6.40;;;15.80;99.90;;;;;;5050240;28;20075;-73
2021/08/31 02:29:42;;;;;;;10.35;5.88;;;15.70;99.90;;;;;;5050839;28;20091;-75
2021/08/31 02:32:07;;;;;;;16.95;7.07;;;15.70;99.90;;;;;;5046101;28;20025;-74
2021/08/31 02:34:33;;;;;;;16.25;6.18;;;15.70;99.90;;;;;;5049725;28;20490;-75
2021/08/31 02:36:59;;;;;;;13.40;7.47;;;15.60;99.90;;;;;;5050155;28;20025;-74
2021/08/31 02:39:25;;;;;;;10.50;5.75;;;15.60;99.90;;;;;;5050942;28;20036;-74
2021/08/31 02:41:51;;;;;;;12.73;7.07;;;15.60;99.90;;;;;;5050344;28;20053;-75
2021/08/31 02:44:16;;;;;;;18.52;6.50;;;15.60;99.90;;;;;;5049526;28;20410;-74
2021/08/31 02:46:42;;;;;;;17.13;6.97;;;15.60;99.90;;;;;;5053662;28;20032;-75
2021/08/31 02:49:07;;;;;;;13.20;6.70;;;15.60;99.90;;;;;;5053960;28;20028;-74
2021/08/31 02:51:33;;;;;;;15.60;7.05;;;15.60;99.90;;;;;;5053841;28;20032;-74
2021/08/31 02:53:59;;;;;;;13.63;6.57;;;15.50;99.90;;;;;;5052938;28;20527;-74
2021/08/31 02:56:24;;;;;;;10.52;6.03;;;15.50;99.90;;;;;;5052394;28;20029;-75
2021/08/31 02:58:50;;;;;;;12.75;5.63;;;15.50;99.90;;;;;;5054095;28;20535;-75
2021/08/31 03:03:53;;;;;;;;;;;15.40;99.90;;;;;;5054752;28;20055;-75
2021/08/31 03:06:19;;;;;;;10.80;5.90;;;15.40;99.90;;;;;;5053483;28;19913;-74
2021/08/31 03:08:45;;;;;;;10.02;5.53;;;15.40;99.90;;;;;;5053440;28;20186;-75
2021/08/31 03:11:10;;;;;;;11.23;5.40;;;15.30;99.90;;;;;;5052795;28;21418;-75
2021/08/31 03:13:36;;;;;;;19.52;5.47;;;15.30;99.90;;;;;;5054059;28;20519;-75
2021/08/31 03:16:01;;;;;;;10.25;5.28;;;15.30;99.90;;;;;;5053589;28;20100;-75
2021/08/31 03:18:27;;;;;;;8.48;5.30;;;15.20;99.90;;;;;;5052049;28;20045;-75
2021/08/31 03:20:53;;;;;;;14.38;6.68;;;15.20;99.90;;;;;;5052373;28;20128;-75
2021/08/31 03:23:18;;;;;;;11.43;5.80;;;15.10;99.90;;;;;;5052102;28;20390;-75
2021/08/31 03:25:44;;;;;;;13.07;6.15;;;15.10;99.90;;;;;;5053487;28;20017;-75
2021/08/31 03:28:09;;;;;;;12.38;6.78;;;15.10;99.90;;;;;;5050016;28;20029;-75
2021/08/31 03:30:35;;;;;;;12.63;5.57;;;15.00;99.90;;;;;;5053406;28;20036;-76
2021/08/31 03:33:01;;;;;;;10.07;5.20;;;15.00;99.90;;;;;;5053550;28;20028;-75
2021/08/31 03:35:27;;;;;;;12.95;5.70;;;15.00;99.90;;;;;;5050612;28;20806;-76
2021/08/31 03:37:52;;;;;;;10.48;5.75;;;15.00;99.90;;;;;;5053177;28;20108;-75
2021/08/31 03:40:18;;;;;;;18.38;6.00;;;15.00;99.90;;;;;;5052011;28;20354;-75
2021/08/31 03:42:46;;;;;;;12.35;5.55;;;15.00;99.90;;;;;;5046161;28;20056;-75
2021/08/31 03:45:12;;;;;;;15.85;6.25;;;15.00;99.90;;;;;;5052023;28;20037;-75
2021/08/31 03:47:37;;;;;;;16.00;6.93;;;15.00;99.90;;;;;;5042941;28;20488;-75
2021/08/31 03:50:03;;;;;;;14.32;6.57;;;15.00;99.90;;;;;;5051906;28;20035;-75
2021/08/31 03:52:29;;;;;;;12.70;5.85;;;15.00;99.90;;;;;;5053020;28;20036;-76
2021/08/31 03:54:54;;;;;;;9.73;5.35;;;15.10;99.90;;;;;;5051593;28;20485;-75
2021/08/31 03:57:20;;;;;;;8.02;5.60;;;15.10;99.90;;;;;;5052993;28;20106;-75
2021/08/31 03:59:46;;;;;;;8.48;5.53;;;15.10;99.90;;;;;;5053050;28;20031;-75
2021/08/31 04:02:11;;;;;;;10.18;5.50;;;15.10;99.90;;;;;;5042560;28;20367;-75
2021/08/31 04:04:37;;;;;;;19.50;6.13;;;15.10;99.90;;;;;;5051115;28;20037;-75
2021/08/31 04:07:03;;;;;;;23.02;7.03;;;15.10;99.90;;;;;;5052853;28;20101;-75
2021/08/31 04:09:28;;;;;;;11.57;7.25;;;15.10;99.90;;;;;;5052768;28;20048;-75
2021/08/31 04:11:54;;;;;;;18.85;8.05;;;15.10;99.90;;;;;;5052114;28;20013;-75
2021/08/31 04:14:19;;;;;;;17.42;7.45;;;15.10;99.90;;;;;;5050733;28;20079;-75
2021/08/31 04:16:45;;;;;;;20.15;7.53;;;15.10;99.90;;;;;;5049147;28;20115;-75
2021/08/31 04:19:10;;;;;;;16.98;6.63;;;15.10;99.90;;;;;;5053028;28;20037;-75
2021/08/31 04:21:36;;;;;;;21.52;7.50;;;15.00;99.90;;;;;;5050947;28;20398;-74
2021/08/31 04:24:02;;;;;;;18.20;6.13;;;15.10;99.90;;;;;;5052421;28;20144;-75
2021/08/31 04:26:28;;;;;;;15.18;6.20;;;15.10;99.90;;;;;;5050865;28;20025;-75
2021/08/31 04:28:53;;;;;;;11.90;6.63;;;15.10;99.90;;;;;;5052245;28;20079;-75
2021/08/31 04:31:21;;;;;;;17.20;6.63;;;15.20;99.90;;;;;;5051421;28;20358;-74
2021/08/31 04:33:47;;;;;;;;;;;15.20;99.90;;;;;;5034924;28;20017;-75
2021/08/31 04:36:12;;;;;;;11.88;5.82;;;15.20;99.90;;;;;;5050892;28;19919;-75
2021/08/31 04:38:38;;;;;;;9.40;5.30;;;15.20;99.90;;;;;;5050928;28;20097;-75
2021/08/31 04:41:04;;;;;;;15.48;5.47;;;15.10;99.90;;;;;;5051272;28;20025;-75
2021/08/31 04:43:29;;;;;;;10.63;5.45;;;15.10;99.90;;;;;;5051857;28;20049;-75
2021/08/31 04:45:55;;;;;;;12.82;5.63;;;15.10;99.90;;;;;;5051016;28;20033;-75
2021/08/31 04:48:20;;;;;;;15.20;5.40;;;15.10;99.90;;;;;;5044180;28;20040;-75
2021/08/31 04:50:46;;;;;;;12.57;5.22;;;15.10;99.90;;;;;;5049970;28;20410;-75
2021/08/31 04:53:11;;;;;;;15.68;6.00;;;15.10;99.90;;;;;;5050609;28;20535;-75
2021/08/31 04:55:37;;;;;;;14.10;5.15;;;15.10;99.90;;;;;;5051720;28;20481;-75
2021/08/31 04:58:03;;;;;;;17.58;6.43;;;15.10;99.90;;;;;;5041479;28;20034;-75
2021/08/31 05:00:28;;;;;;;13.93;6.75;;;15.10;99.90;;;;;;5050771;28;20393;-75
2021/08/31 05:02:56;;;;;;;16.25;6.80;;;15.10;99.90;;;;;;5051404;28;20032;-75
2021/08/31 05:05:23;;;;;;;23.40;8.38;;;15.10;99.90;;;;;;5050974;28;20397;-75
2021/08/31 05:07:48;;;;;;;23.42;10.27;;;15.10;99.90;;;;;;5050400;28;20017;-75
2021/08/31 05:10:14;;;;;;;18.95;6.50;;;15.10;99.90;;;;;;5051562;28;20023;-74
2021/08/31 05:12:40;;;;;;;11.75;5.38;;;15.20;99.90;;;;;;5050348;28;20496;-75
2021/08/31 05:15:06;;;;;;;16.98;5.90;;;15.20;99.90;;;;;;5051868;28;20027;-75
2021/08/31 05:17:33;;;;;;;12.52;5.22;;;15.20;99.90;;;;;;5051226;28;20075;-75
2021/08/31 05:19:59;;;;;;;14.95;6.22;;;15.30;99.90;;;;;;5045088;28;20025;-75
2021/08/31 05:22:27;;;;;;;7.80;4.43;;;15.30;99.90;;;;;;5049729;28;20017;-75
2021/08/31 05:24:55;;;;;;;;;;;15.30;99.90;;;;;;5051603;28;20035;-75
2021/08/31 05:27:22;;;;;;;14.00;4.82;;;15.30;99.90;;;;;;5051485;28;19923;-75
2021/08/31 05:29:48;;;;;;;17.50;6.03;;;15.40;99.90;;;;;;5051251;28;20021;-75
2021/08/31 05:32:14;;;;;;;13.13;5.18;;;15.40;99.90;;;;;;5049911;28;20086;-75
2021/08/31 05:34:41;;;;;;;17.50;5.97;;;15.40;99.90;;;;;;5046309;28;20083;-75
2021/08/31 05:37:07;;;;;;;24.13;6.85;;;15.40;99.90;;;;;;5051361;28;20066;-75
2021/08/31 05:39:34;;;;;;;19.77;6.93;;;15.40;99.90;;;;;;5050893;28;20104;-75
2021/08/31 05:42:04;;;;;;;17.60;6.82;;;15.50;99.90;;;;;;5050994;28;20526;-75
2021/08/31 05:44:31;;;;;;;19.23;6.45;;;15.50;99.90;;;;;;5051339;28;20029;-75
2021/08/31 05:46:57;;;;;;;23.70;6.68;;;15.50;99.90;;;;;;5051651;28;20025;-75
2021/08/31 05:49:23;;;;;;;18.35;6.30;;;15.50;99.90;;;;;;5047245;28;20381;-75
2021/08/31 05:51:49;;;;;;;17.88;6.10;;;15.60;99.90;;;;;;5041386;28;20025;-75
2021/08/31 05:54:15;;;;;;;25.38;7.35;;;15.60;99.90;;;;;;5051651;28;20036;-75
2021/08/31 05:56:40;;;;;;;16.38;5.93;;;15.60;99.90;;;;;;5051552;28;20032;-75
2021/08/31 05:59:06;;;;;;;11.55;5.47;;;15.60;99.90;;;;;;5050138;28;20060;-75
2021/08/31 06:01:33;;;;;;;19.17;5.78;;;15.70;99.90;;;;;;5095168;28;20090;-75
2021/08/31 06:03:59;;;;;;;20.42;5.72;;;15.70;99.90;;;;;;5068965;28;20021;-75
2021/08/31 06:06:24;;;;;;;18.52;5.80;;;15.70;99.90;;;;;;5070117;28;20032;-75
2021/08/31 06:08:50;;;;;;;11.25;5.22;;;15.80;99.90;;;;;;5068321;28;20033;-75
2021/08/31 06:11:21;;;;;;;19.85;5.78;;;15.80;99.90;;;;;;5069834;28;20432;-75
2021/08/31 06:13:46;;;;;;;14.25;5.07;;;15.80;99.90;;;;;;5068613;28;20025;-75
2021/08/31 06:16:12;;;;;;;17.38;6.28;;;16.00;99.90;;;;;;5068827;28;20491;-75
2021/08/31 06:18:38;;;;;;;13.13;5.22;;;16.00;99.90;;;;;;5070412;28;20135;-74
2021/08/31 06:21:04;;;;;;;14.27;4.70;;;16.10;99.90;;;;;;5073502;28;20055;-75
2021/08/31 06:23:29;;;;;;;16.58;6.03;;;16.10;99.90;;;;;;5073469;28;20056;-74
2021/08/31 06:25:55;;;;;;;15.07;5.13;;;16.10;99.90;;;;;;5074208;28;20057;-75
2021/08/31 06:28:21;;;;;;;11.05;5.07;;;16.20;99.90;;;;;;5073020;28;20067;-74
2021/08/31 06:30:46;;;;;;;10.82;5.40;;;16.30;99.90;;;;;;5058453;28;20053;-74
2021/08/31 06:33:12;;;;;;;10.25;5.00;;;16.30;99.90;;;;;;5073380;28;20029;-75
2021/08/31 06:35:38;;;;;;;12.02;4.85;;;16.30;99.90;;;;;;5070651;28;20040;-74
2021/08/31 06:38:03;;;;;;;15.05;5.05;;;16.30;99.90;;;;;;5058867;28;20541;-73
2021/08/31 06:40:29;;;;;;;13.10;5.28;;;16.40;99.90;;;;;;5056390;28;20033;-75
2021/08/31 06:42:55;;;;;;;10.90;4.95;;;16.50;99.90;;;;;;5056500;28;20029;-75
2021/08/31 06:45:21;;;;;;;22.60;5.20;;;16.40;99.90;;;;;;5055540;28;20069;-76
2021/08/31 06:47:47;;;;;;;10.85;5.50;;;16.50;99.90;;;;;;5056109;28;20377;-75
2021/08/31 06:50:16;;;;;;;13.68;5.32;;;16.50;99.90;;;;;;5056361;28;20028;-75
2021/08/31 06:52:43;;;;;;;13.07;5.80;;;16.50;99.90;;;;;;5054094;28;20069;-76
2021/08/31 06:55:09;;;;;;;19.45;6.05;;;16.60;99.90;;;;;;5053057;28;20110;-75
2021/08/31 06:57:36;;;;;;;13.50;6.15;;;16.70;99.90;;;;;;5054714;28;20067;-76
2021/08/31 07:00:03;;;;;;;14.50;4.22;;;16.70;99.90;;;;;;5054108;28;20036;-76
2021/08/31 07:02:29;;;;;;;17.85;5.13;;;16.80;99.90;;;;;;5044695;28;20029;-76
2021/08/31 07:04:55;;;;;;;13.02;4.90;;;16.90;99.90;;;;;;5053231;28;20052;-76
2021/08/31 07:07:20;;;;;;;11.07;4.50;;;16.90;99.90;;;;;;5053773;28;20073;-75
2021/08/31 07:09:46;;;;;;;10.38;4.55;;;16.90;99.90;;;;;;5049795;28;20095;-75
2021/08/31 07:12:13;;;;;;;9.85;5.25;;;16.90;99.90;;;;;;5053638;28;20028;-75
2021/08/31 07:14:38;;;;;;;16.00;5.32;;;17.00;99.90;;;;;;5052667;28;20028;-75
2021/08/31 07:17:06;;;;;;;14.55;4.88;;;17.10;99.90;;;;;;5052554;28;20489;-74
2021/08/31 07:19:32;;;;;;;12.20;5.10;;;17.10;99.90;;;;;;5053656;28;20052;-78
2021/08/31 07:21:58;;;;;;;12.70;3.92;;;17.20;99.90;;;;;;5043628;28;20417;-74
2021/08/31 07:24:24;;;;;;;14.57;4.03;;;17.30;99.90;;;;;;5053763;28;20063;-73
2021/08/31 07:26:49;;;;;;;14.90;5.50;;;17.30;99.90;;;;;;5053350;28;20477;-73
2021/08/31 07:29:16;;;;;;;12.40;4.82;;;17.40;99.90;;;;;;5050928;28;20416;-74
2021/08/31 07:31:42;;;;;;;8.18;3.45;;;17.50;99.90;;;;;;5053854;28;20477;-75
2021/08/31 07:34:07;;;;;;;12.25;3.88;;;17.40;99.90;;;;;;5051723;28;20025;-75
2021/08/31 07:36:33;;;;;;;16.45;4.47;;;17.40;99.90;;;;;;5049460;28;20029;-74
2021/08/31 07:38:59;;;;;;;14.93;5.43;;;17.50;99.90;;;;;;5051799;28;20543;-74
2021/08/31 07:41:24;;;;;;;13.50;3.60;;;17.60;99.90;;;;;;5051959;28;20463;-74
2021/08/31 07:43:51;;;;;;;11.35;3.58;;;17.60;99.90;;;;;;5051769;28;20044;-74
2021/08/31 07:46:18;;;;;;;11.33;4.00;;;17.70;99.90;;;;;;5050947;28;20056;-74
2021/08/31 07:48:44;;;;;;;11.50;4.00;;;17.80;99.90;;;;;;5051559;28;20087;-74
2021/08/31 07:51:10;;;;;;;12.82;4.00;;;17.90;99.90;;;;;;5051939;28;20024;-74
2021/08/31 07:53:35;;;;;;;11.13;3.58;;;17.90;99.90;;;;;;5053186;28;20024;-75
2021/08/31 07:56:01;;;;;;;12.85;4.00;;;17.80;99.90;;;;;;5051038;28;20089;-75
2021/08/31 07:58:27;;;;;;;8.70;3.80;;;17.90;99.90;;;;;;5051490;28;20358;-75
2021/08/31 08:00:53;;;;;;;12.52;3.58;;;17.90;99.90;;;;;;5051044;28;20036;-75
2021/08/31 08:03:18;;;;;;;8.40;3.50;;;18.00;99.90;;;;;;5036716;28;20044;-75
2021/08/31 08:05:44;;;;;;;13.23;3.33;;;18.10;99.90;;;;;;5049819;28;20115;-77
2021/08/31 08:08:10;;;;;;;14.32;4.15;;;18.10;99.90;;;;;;5049847;28;20040;-77
2021/08/31 08:10:35;;;;;;;17.08;4.22;;;18.00;99.90;;;;;;5053057;28;20032;-76
2021/08/31 08:13:01;;;;;;;9.73;4.18;;;18.00;99.90;;;;;;5051446;28;20107;-77
2021/08/31 08:15:26;;;;;;;9.07;3.10;;;18.00;99.90;;;;;;5050428;28;20096;-76
2021/08/31 08:17:52;;;;;;;8.77;3.45;;;18.00;99.90;;;;;;5051538;28;20408;-74
2021/08/31 08:20:19;;;;;;;10.70;3.20;;;18.00;99.90;;;;;;5051200;28;20033;-75
2021/08/31 08:22:45;;;;;;;13.48;3.20;;;18.00;99.90;;;;;;5051532;28;20029;-74
2021/08/31 08:25:11;;;;;;;10.32;3.90;;;18.20;99.90;;;;;;5051170;28;20036;-75
2021/08/31 08:27:37;;;;;;;13.00;3.60;;;18.20;99.90;;;;;;5052590;28;20108;-73
2021/08/31 08:30:03;;;;;;;10.25;3.35;;;18.30;99.90;;;;;;5051477;28;20112;-73
2021/08/31 08:32:29;;;;;;;7.57;3.42;;;18.30;99.90;;;;;;5050879;28;20040;-73
2021/08/31 08:34:55;;;;;;;11.90;4.68;;;18.20;99.90;;;;;;5046659;28;20044;-73
2021/08/31 08:37:20;;;;;;;10.88;3.35;;;18.10;99.90;;;;;;5051662;28;20029;-74
2021/08/31 08:39:46;;;;;;;14.75;4.05;;;18.00;99.90;;;;;;5050283;28;20055;-73
2021/08/31 08:42:13;;;;;;;7.95;3.25;;;18.00;99.90;;;;;;5050936;28;20033;-74
2021/08/31 08:44:38;;;;;;;13.50;4.80;;;18.00;99.90;;;;;;5051418;28;20029;-73
2021/08/31 08:47:04;;;;;;;10.88;4.05;;;18.00;99.90;;;;;;5049987;28;20028;-73
2021/08/31 08:49:31;;;;;;;13.32;3.28;;;18.00;99.90;;;;;;5036402;28;20022;-73
2021/08/31 08:51:58;;;;;;;19.83;5.65;;;18.00;99.90;;;;;;5033503;28;20029;-73
2021/08/31 08:54:25;;;;;;;;;;;18.10;99.90;;;;;;5080449;28;20037;-73
2021/08/31 08:56:52;;;;;;;18.08;3.92;;;18.10;99.90;;;;;;5050874;28;20384;-73
2021/08/31 08:59:19;;;;;;;7.72;2.97;;;18.10;99.90;;;;;;5049306;28;20021;-73
2021/08/31 09:01:48;;;;;;;11.68;2.47;;;18.10;99.90;;;;;;5052454;28;20060;-73
2021/08/31 09:04:16;;;;;;;12.05;3.95;;;18.10;99.90;;;;;;5051930;28;20477;-74
2021/08/31 09:06:45;;;;;;;15.32;4.05;;;18.00;99.90;;;;;;5051779;28;20602;-73
2021/08/31 09:09:12;;;;;;;13.70;3.88;;;18.00;99.90;;;;;;5050495;28;20106;-73
2021/08/31 09:11:46;;;;;;;18.55;3.97;;;18.00;99.90;;;;;;5050334;28;20021;-73
2021/08/31 09:14:29;;;;;;;12.32;4.30;;;18.10;99.90;;;;;;5050381;28;20060;-73
2021/08/31 09:16:58;;;;;;;10.25;4.47;;;18.10;99.90;;;;;;5051924;28;20029;-73
2021/08/31 09:19:32;;;;;;;12.95;3.63;;;18.00;99.90;;;;;;5051810;28;20405;-74
2021/08/31 09:22:19;;;;;;;19.38;4.70;;;18.00;99.90;;;;;;5052036;28;20072;-73
2021/08/31 09:25:01;;;;;;;15.35;4.13;;;17.90;99.90;;;;;;5031704;28;20045;-73
2021/08/31 09:27:38;;;;;;;16.67;3.80;;;17.90;99.90;;;;;;5043484;28;20037;-73
2021/08/31 09:30:15;;;;;;;14.13;4.22;;;18.00;99.90;;;;;;5030439;28;20038;-73
2021/08/31 09:32:59;;;;;;;14.48;4.15;;;18.20;99.90;;;;;;5036054;28;20362;-75
2021/08/31 09:35:30;;;;;;;9.70;3.45;;;18.40;99.90;;;;;;5050227;28;20208;-75
2021/08/31 09:38:00;;;;;;;9.80;4.00;;;18.60;99.90;;;;;;5051949;28;20041;-75
2021/08/31 09:40:28;;;;;;;12.77;4.25;;;18.60;99.90;;;;;;5051770;28;20158;-75
2021/08/31 09:43:00;;;;;;;10.35;3.80;;;18.60;99.90;;;;;;5045856;28;20099;-75
2021/08/31 09:45:30;;;;;;;9.30;3.00;;;18.60;99.90;;;;;;5031981;28;20485;-75
2021/08/31 09:47:56;;;;;;;16.25;4.18;;;18.40;99.90;;;;;;5063789;28;20037;-75
2021/08/31 09:50:31;;;;;;;13.53;3.63;;;18.30;99.90;;;;;;5030642;28;20079;-75
2021/08/31 09:53:04;;;;;;;18.70;4.25;;;18.30;99.90;;;;;;5044511;28;20276;-75
2021/08/31 09:55:30;;;;;;;9.32;3.63;;;18.30;99.90;;;;;;5038592;28;20124;-75
2021/08/31 09:58:11;;;;;;;13.00;3.53;;;18.20;99.90;;;;;;5045925;28;20048;-76
2021/08/31 10:00:37;;;;;;;10.30;4.28;;;18.20;99.90;;;;;;5090002;28;20124;-76
2021/08/31 10:03:03;;;;;;;6.20;3.17;;;18.10;99.90;;;;;;5068778;28;20029;-76
2021/08/31 10:05:31;;;;;;;12.98;3.78;;;18.10;99.90;;;;;;5076553;28;20039;-76
2021/08/31 10:07:57;;;;;;;9.32;3.40;;;18.20;99.90;;;;;;5077177;28;20055;-76
2021/08/31 10:10:24;;;;;;;11.25;3.33;;;18.20;99.90;;;;;;5075642;28;20041;-76
2021/08/31 10:12:54;;;;;;;5.80;3.58;;;18.30;99.90;;;;;;5058225;28;20021;-76
2021/08/31 10:15:22;;;;;;;7.85;3.17;;;18.30;99.90;;;;;;5056588;28;20029;-76
2021/08/31 10:17:50;;;;;;;12.77;3.85;;;18.40;99.90;;;;;;5057690;28;20057;-74
2021/08/31 10:20:22;;;;;;;10.07;3.03;;;18.40;99.90;;;;;;5091488;28;20014;-75
2021/08/31 10:22:48;;;;;;;11.25;3.38;;;18.40;99.90;;;;;;5057798;28;20040;-76
2021/08/31 10:25:14;;;;;;;9.48;3.88;;;18.50;99.90;;;;;;5058315;28;20033;-75
2021/08/31 10:27:42;;;;;;;12.63;3.97;;;18.70;99.90;;;;;;5058659;28;20041;-74
2021/08/31 10:30:20;;;;;;;12.75;3.72;;;18.80;99.90;;;;;;5058181;28;20025;-74
2021/08/31 10:33:01;;;;;;;15.55;3.17;;;18.80;99.90;;;;;;5058709;28;20618;-74
2021/08/31 10:35:36;;;;;;;13.52;3.38;;;19.00;99.90;;;;;;5057102;28;20413;-74
2021/08/31 10:38:04;;;;;;;10.40;3.22;;;19.00;99.90;;;;;;5043969;28;20143;-75
2021/08/31 10:40:38;;;;;;;8.68;3.20;;;19.10;99.90;;;;;;5044737;28;20021;-75
2021/08/31 10:43:09;;;;;;;11.45;3.58;;;19.00;99.90;;;;;;5037252;28;20042;-75
2021/08/31 10:45:43;;;;;;;11.13;3.47;;;18.90;99.90;;;;;;5036768;28;20037;-75
2021/08/31 10:48:23;;;;;;;9.52;3.20;;;19.00;99.90;;;;;;5037167;28;20043;-74
2021/08/31 10:51:01;;;;;;;8.55;3.70;;;19.20;99.90;;;;;;5056145;28;20029;-75
2021/08/31 10:53:45;;;;;;;15.15;3.83;;;19.50;99.90;;;;;;5049798;28;20044;-75
2021/08/31 10:56:23;;;;;;;8.88;3.35;;;19.50;99.90;;;;;;5035122;28;20497;-75
2021/08/31 10:58:51;;;;;;;15.93;3.67;;;19.60;99.90;;;;;;5036217;28;20168;-75
2021/08/31 11:01:19;;;;;;;6.72;3.90;;;19.80;99.90;;;;;;5034089;28;20022;-75
2021/08/31 11:03:46;;;;;;;9.88;3.47;;;20.00;99.90;;;;;;5033777;28;20029;-74
2021/08/31 11:06:18;;;;;;;6.50;3.40;;;20.30;99.90;;;;;;5033586;28;20029;-75
2021/08/31 11:09:03;;;;;;;9.95;3.03;;;20.20;99.90;;;;;;5034474;28;20033;-75
2021/08/31 11:11:28;;;;;;;11.57;2.78;;;19.90;99.90;;;;;;5034930;28;20017;-75
2021/08/31 11:13:55;;;;;;;10.82;3.03;;;19.70;99.90;;;;;;5050187;28;20040;-75
2021/08/31 11:16:29;;;;;;;13.95;3.45;;;19.70;99.90;;;;;;5054555;28;20017;-75
2021/08/31 11:18:55;;;;;;;7.75;3.00;;;19.90;99.90;;;;;;5045320;28;20053;-75
2021/08/31 11:21:22;;;;;;;14.13;3.70;;;19.90;99.90;;;;;;5034289;28;20109;-75
2021/08/31 11:23:48;;;;;;;10.40;3.70;;;19.90;99.90;;;;;;5047407;28;20068;-75
2021/08/31 11:26:24;;;;;;;14.80;4.75;;;19.70;99.90;;;;;;5054037;28;20021;-75
2021/08/31 11:28:52;;;;;;;9.85;3.25;;;19.60;99.90;;;;;;5054215;28;20044;-75
2021/08/31 11:31:24;;;;;;;11.48;4.43;;;19.50;99.90;;;;;;5052332;28;20025;-74
2021/08/31 11:33:54;;;;;;;8.32;2.78;;;19.50;99.90;;;;;;5039512;28;20422;-74
2021/08/31 11:36:25;;;;;;;9.80;3.25;;;19.50;99.90;;;;;;5033787;28;20485;-74
2021/08/31 11:38:51;;;;;;;9.25;3.70;;;19.80;99.90;;;;;;5034269;28;20040;-75
2021/08/31 11:41:18;;;;;;;8.23;2.85;;;20.00;99.90;;;;;;5045802;28;20025;-74
2021/08/31 11:43:45;;;;;;;;;;;19.90;99.90;;;;;;5047324;28;20109;-75
2021/08/31 11:46:11;;;;;;;15.35;3.58;;;19.80;99.90;;;;;;5032627;28;19909;-75
2021/08/31 11:48:37;;;;;;;15.38;3.63;;;19.80;99.90;;;;;;5032477;28;20428;-75
2021/08/31 11:51:03;;;;;;;11.50;3.10;;;19.70;99.90;;;;;;5032222;28;20087;-75
2021/08/31 11:53:30;;;;;;;12.93;3.20;;;19.60;99.90;;;;;;5050481;28;20060;-75
2021/08/31 11:55:57;;;;;;;15.18;3.85;;;19.60;99.90;;;;;;5053502;28;20018;-75
2021/08/31 11:58:24;;;;;;;;;;;19.60;99.90;;;;;;5052525;28;20451;-75
2021/08/31 12:00:50;;;;;;;6.75;2.92;;;19.70;99.90;;;;;;5053435;28;20342;-75
2021/08/31 12:03:22;;;;;;;8.68;3.25;;;19.70;99.90;;;;;;5035322;28;20123;-75
2021/08/31 12:06:01;;;;;;;12.80;3.00;;;19.70;99.90;;;;;;5033264;28;20116;-75
2021/08/31 12:08:30;;;;;;;15.30;4.43;;;19.70;99.90;;;;;;5033181;28;20061;-75
2021/08/31 12:10:58;;;;;;;6.05;3.63;;;19.50;99.90;;;;;;5034141;28;20053;-75
2021/08/31 12:13:24;;;;;;;10.27;3.08;;;19.50;99.90;;;;;;5033066;28;20029;-75
2021/08/31 12:15:55;;;;;;;10.43;3.35;;;19.80;99.90;;;;;;5031664;28;20108;-75
2021/08/31 12:18:24;;;;;;;14.52;5.20;;;19.60;99.90;;;;;;5048627;28;20041;-75
2021/08/31 12:20:50;;;;;;;36.50;7.60;;;19.50;99.90;;;;;;5052065;28;20037;-76
2021/08/31 12:23:16;;;;;;;9.70;2.33;;;19.60;99.90;;;;;;5046781;28;20550;-75
2021/08/31 12:25:53;;;;;;;9.38;2.85;;;19.60;99.90;;;;;;5051111;28;20536;-75
2021/08/31 12:28:20;;;;;;;;;;;19.60;99.90;;;;;;5052948;28;20497;-75
2021/08/31 12:30:47;;;;;;;7.77;3.10;;;19.50;99.90;;;;;;5051901;28;20349;-75
2021/08/31 12:33:24;;;;;;;8.35;2.65;;;19.50;99.90;;;;;;5052519;28;20029;-75
2021/08/31 12:36:03;;;;;;;8.75;3.10;;;19.70;99.90;;;;;;5042544;28;20168;-75
2021/08/31 12:38:37;;;;;;;22.45;2.80;;;19.90;99.90;;;;;;5049253;28;20497;-75
2021/08/31 12:41:10;;;;;;;20.85;4.18;;;19.90;99.90;;;;;;5050866;28;20028;-75
2021/08/31 12:43:50;;;;;;;8.48;2.83;;;19.70;99.90;;;;;;5051935;28;20112;-75